Sidney, Michigan
Current Conditions -  °F | °C
As of 11:53 PM on Thursday 30 Oct 2014 (Local Time) from KY70 Reporting Station
Overcast Overcast  
Wind Chill: 42°   Ceiling: 3900
Heat Index: 44°   Visibility: 10mi
Dew Point: 38°   Wind: 5mph
Humidity: 78%   Direction: 220°SW
Pressure: 29.98"   Gusts: NA
Location:  43.25°N, 85.13°W
Report Text: KY70 310353Z AUTO 22004KT 10SM BKN039 OVC090 07/03 A2998 RMK AO2 T00670032
Loading
Personal Weather Stations






























Interactive Weather Map
Tropical Storm Tracking
New forecast layout! Learn more

10-Day Weather Forecast

Advertisements
Track Severe Weather on mobile